createdAt,value
2019-04-21T00:02:31.995Z,100721.08
2019-04-21T00:05:16.474Z,100718.45
2019-04-21T00:07:49.024Z,100713.23
2019-04-21T00:10:23.505Z,100705.36
2019-04-21T00:12:45.918Z,100703.20
2019-04-21T00:15:10.002Z,100704.62
2019-04-21T00:17:31.618Z,100700.73
2019-04-21T00:20:12.716Z,100703.89
2019-04-21T00:22:44.027Z,100700.91
2019-04-21T00:25:22.728Z,100690.85
2019-04-21T00:27:50.097Z,100689.20
2019-04-21T00:30:32.852Z,100685.33
2019-04-21T00:32:50.311Z,100690.28
2019-04-21T00:35:15.502Z,100688.19
2019-04-21T00:38:00.882Z,100682.52
2019-04-21T00:40:34.557Z,100674.66
2019-04-21T00:42:59.986Z,100676.94
2019-04-21T00:45:27.503Z,100673.50
2019-04-21T00:48:03.869Z,100666.95
2019-04-21T00:50:41.978Z,100665.70
2019-04-21T00:53:23.060Z,100659.12
2019-04-21T00:55:59.169Z,100656.12
2019-04-21T00:58:30.089Z,100654.45
2019-04-21T01:01:00.451Z,100647.91
2019-04-21T01:03:26.740Z,100646.59
2019-04-21T01:05:56.080Z,100643.61
2019-04-21T01:08:28.249Z,100643.63
2019-04-21T01:10:51.622Z,100638.88
2019-04-21T01:13:32.104Z,100639.31
2019-04-21T01:15:59.559Z,100632.84
2019-04-21T01:18:28.426Z,100626.31
2019-04-21T01:20:39.438Z,100625.48
2019-04-21T01:23:08.597Z,100626.87
2019-04-21T01:25:46.066Z,100625.15
2019-04-21T01:28:27.165Z,100622.13
2019-04-21T01:30:56.842Z,100627.02
2019-04-21T01:33:33.582Z,100622.65
2019-04-21T01:35:58.050Z,100622.23
2019-04-21T01:38:34.193Z,100629.30
2019-04-21T01:41:07.070Z,100624.13
2019-04-21T01:43:33.852Z,100624.64
2019-04-21T01:46:04.663Z,100625.59
2019-04-21T01:48:30.667Z,100622.12
2019-04-21T01:51:00.585Z,100623.50
2019-04-21T01:54:11.190Z,100623.55
2019-04-21T01:56:55.718Z,100625.78
2019-04-21T01:59:25.694Z,100623.21
2019-04-21T02:02:02.353Z,100620.27
2019-04-21T02:04:36.568Z,100624.27
2019-04-21T02:07:03.185Z,100623.78
2019-04-21T02:09:38.373Z,100619.86
2019-04-21T02:12:10.565Z,100621.19
2019-04-21T02:14:46.086Z,100627.83
2019-04-21T02:17:13.207Z,100623.04
2019-04-21T02:19:39.042Z,100612.08
2019-04-21T02:22:04.868Z,100622.67
2019-04-21T02:24:49.907Z,100616.56
2019-04-21T02:27:12.996Z,100617.05
2019-04-21T02:29:49.020Z,100614.45
2019-04-21T02:35:06.525Z,100615.02
2019-04-21T02:37:42.534Z,100614.17
2019-04-21T02:42:31.536Z,100616.02
2019-04-21T02:44:59.833Z,100613.38
2019-04-21T02:47:36.723Z,100608.59
2019-04-21T02:52:35.426Z,100601.62
2019-04-21T02:55:02.693Z,100601.67
2019-04-21T02:57:34.729Z,100607.84
2019-04-21T03:00:15.981Z,100605.25
2019-04-21T03:02:55.122Z,100601.81
2019-04-21T03:08:03.470Z,100598.84
2019-04-21T03:10:53.240Z,100594.04
2019-04-21T03:13:13.948Z,100593.66
2019-04-21T03:15:59.144Z,100582.27
2019-04-21T03:21:01.235Z,100578.83
2019-04-21T03:28:14.093Z,100566.14
2019-04-21T03:38:18.987Z,100557.90
2019-04-21T03:40:39.977Z,100561.88
2019-04-21T03:43:20.700Z,100561.03
2019-04-21T03:45:49.613Z,100567.18
2019-04-21T03:48:20.814Z,100566.79
2019-04-21T03:50:49.169Z,100565.91
2019-04-21T04:04:18.040Z,100556.80
2019-04-21T04:07:05.651Z,100551.17
2019-04-21T04:09:26.154Z,100557.74
2019-04-21T04:11:51.076Z,100555.15
2019-04-21T04:14:26.800Z,100550.77
2019-04-21T04:19:26.384Z,100546.86
2019-04-21T04:24:34.346Z,100544.69
2019-04-21T04:26:57.008Z,100545.14
2019-04-21T04:29:24.520Z,100545.14
2019-04-21T04:32:14.618Z,100543.41
2019-04-21T04:34:47.333Z,100541.66
2019-04-21T04:37:05.437Z,100543.00
2019-04-21T04:40:10.864Z,100541.69
2019-04-21T04:42:40.742Z,100544.31
2019-04-21T04:47:34.883Z,100542.14
2019-04-21T04:50:05.313Z,100535.58
2019-04-21T04:52:42.388Z,100536.45
2019-04-21T04:55:06.837Z,100537.77
2019-04-21T04:57:49.051Z,100535.11
2019-04-21T05:00:18.186Z,100535.11
2019-04-21T05:12:45.515Z,100535.95
2019-04-21T05:15:11.538Z,100534.63
2019-04-21T05:17:43.275Z,100535.94
2019-04-21T05:20:15.798Z,100530.26
2019-04-21T05:22:44.253Z,100534.20
2019-04-21T05:25:05.516Z,100533.31
2019-04-21T05:27:44.829Z,100530.71
2019-04-21T05:30:30.699Z,100530.71
2019-04-21T05:33:03.641Z,100526.77
2019-04-21T05:36:04.791Z,100527.63
2019-04-21T05:38:47.751Z,100528.81
2019-04-21T05:41:13.098Z,100524.23
2019-04-21T05:43:51.448Z,100524.45
2019-04-21T05:46:25.229Z,100519.42
2019-04-21T05:48:59.283Z,100513.53
2019-04-21T05:51:27.155Z,100516.38
2019-04-21T05:54:06.961Z,100517.89
2019-04-21T05:56:30.586Z,100507.95
2019-04-21T05:59:02.314Z,100516.94
2019-04-21T06:02:11.410Z,100516.67
2019-04-21T06:04:26.207Z,100521.25
2019-04-21T06:06:48.059Z,100522.47
2019-04-21T06:09:14.569Z,100519.16
2019-04-21T06:11:47.879Z,100514.44
2019-04-21T06:14:14.192Z,100509.17
2019-04-21T06:16:48.233Z,100515.74
2019-04-21T06:19:23.622Z,100509.56
2019-04-21T06:21:45.277Z,100504.42
2019-04-21T06:24:26.981Z,100509.83
2019-04-21T06:26:59.252Z,100506.79
2019-04-21T06:29:23.763Z,100434.56
2019-04-21T06:34:27.775Z,100506.17
2019-04-21T06:37:08.177Z,100502.15
2019-04-21T06:42:02.545Z,100500.58
2019-04-21T06:44:41.583Z,100488.83
2019-04-21T06:47:15.586Z,100497.59
2019-04-21T06:49:40.129Z,100499.63
2019-04-21T06:52:30.552Z,100495.41
2019-04-21T06:57:16.901Z,100494.44
2019-04-21T06:59:40.562Z,100490.14
2019-04-21T07:02:33.355Z,100489.09
2019-04-21T07:04:50.231Z,100486.14
2019-04-21T07:07:18.921Z,100486.09
2019-04-21T07:09:51.182Z,100481.81
2019-04-21T07:12:13.901Z,100478.27
2019-04-21T07:14:47.883Z,100475.91
2019-04-21T07:17:24.701Z,100470.24
2019-04-21T07:19:55.369Z,100464.64
2019-04-21T07:22:25.588Z,100473.41
2019-04-21T07:24:48.209Z,100473.33
2019-04-21T07:27:22.281Z,100467.31
2019-04-21T07:29:58.593Z,100463.70
2019-04-21T07:32:29.878Z,100462.86
2019-04-21T07:35:00.126Z,100458.56
2019-04-21T07:37:23.887Z,100454.70
2019-04-21T07:39:54.840Z,100457.91
2019-04-21T07:42:24.369Z,100451.92
2019-04-21T07:45:04.584Z,100460.45
2019-04-21T07:47:50.780Z,100458.52
2019-04-21T07:50:35.018Z,100458.41
2019-04-21T07:53:21.156Z,100456.56
2019-04-21T07:58:14.975Z,100446.09
2019-04-21T08:00:53.012Z,100445.81
2019-04-21T08:03:25.039Z,100441.59
2019-04-21T08:05:52.684Z,100440.19
2019-04-21T08:08:17.915Z,100435.00
2019-04-21T08:10:47.656Z,100432.72
2019-04-21T08:13:28.963Z,100433.44
2019-04-21T08:15:52.953Z,100431.64
2019-04-21T08:18:28.350Z,100428.16
2019-04-21T08:20:58.585Z,100422.28
2019-04-21T08:23:25.410Z,100421.48
2019-04-21T08:26:06.486Z,100420.47
2019-04-21T08:28:35.088Z,100422.02
2019-04-21T08:31:01.314Z,100419.73
2019-04-21T08:38:35.849Z,100410.00
2019-04-21T08:46:08.156Z,100410.45
2019-04-21T08:48:35.167Z,100407.53
2019-04-21T08:51:26.149Z,100397.33
2019-04-21T08:53:41.135Z,100390.41
2019-04-21T08:56:31.904Z,100391.22
2019-04-21T08:59:28.462Z,100384.85
2019-04-21T09:02:10.847Z,100389.93
2019-04-21T09:04:35.231Z,100390.53
2019-04-21T09:07:28.816Z,100391.30
2019-04-21T09:09:45.722Z,100382.27
2019-04-21T09:12:10.587Z,100381.44
2019-04-21T09:14:41.472Z,100378.78
2019-04-21T09:17:08.049Z,100379.59
2019-04-21T09:19:51.045Z,100374.28
2019-04-21T09:22:13.207Z,100374.94
2019-04-21T09:24:46.985Z,100377.06
2019-04-21T09:27:08.522Z,100371.73
2019-04-21T09:29:35.443Z,100374.11
2019-04-21T09:31:59.579Z,100368.92
2019-04-21T09:34:33.181Z,100373.15
2019-04-21T09:37:16.523Z,100367.98
2019-04-21T09:39:33.215Z,100365.27
2019-04-21T09:42:03.270Z,100361.15
2019-04-21T09:44:37.169Z,100362.08
2019-04-21T09:47:05.094Z,100364.38
2019-04-21T09:49:35.613Z,100358.32
2019-04-21T09:52:06.676Z,100351.98
2019-04-21T09:54:45.833Z,100348.74
2019-04-21T09:57:14.479Z,100339.45
2019-04-21T09:59:40.669Z,100346.09
2019-04-21T10:02:16.120Z,100339.42
2019-04-21T10:04:40.063Z,100342.50
2019-04-21T10:07:21.910Z,100335.13
2019-04-21T10:09:40.136Z,100324.73
2019-04-21T10:12:09.818Z,100322.34
2019-04-21T10:14:39.095Z,100316.42
2019-04-21T10:17:23.946Z,100311.66
2019-04-21T10:19:53.202Z,100307.67
2019-04-21T10:22:23.204Z,100301.65
2019-04-21T10:24:52.506Z,100295.80
2019-04-21T10:27:21.553Z,100289.95
2019-04-21T10:29:52.185Z,100286.81
2019-04-21T10:32:23.243Z,100283.59
2019-04-21T10:34:52.861Z,100285.91
2019-04-21T10:37:36.298Z,100276.12
2019-04-21T10:39:53.822Z,100276.11
2019-04-21T10:42:23.692Z,100264.30
2019-04-21T10:44:52.845Z,100260.83
2019-04-21T10:47:22.785Z,100264.67
2019-04-21T10:49:52.844Z,100256.31
2019-04-21T10:52:30.907Z,100250.51
2019-04-21T10:55:17.199Z,100252.25
2019-04-21T10:57:32.563Z,100248.81
2019-04-21T11:00:01.762Z,100246.77
2019-04-21T11:02:41.121Z,100246.67
2019-04-21T11:05:10.264Z,100234.63
2019-04-21T11:08:00.924Z,100237.36
2019-04-21T11:10:20.430Z,100228.78
2019-04-21T11:12:50.774Z,100224.77
2019-04-21T11:15:21.088Z,100221.02
2019-04-21T11:17:50.635Z,100221.88
2019-04-21T11:20:20.183Z,100217.14
2019-04-21T11:22:49.509Z,100214.19
2019-04-21T11:25:19.782Z,100216.22
2019-04-21T11:27:49.160Z,100204.84
2019-04-21T11:30:18.235Z,100205.84
2019-04-21T11:32:48.263Z,100205.23
2019-04-21T11:35:19.213Z,100197.39
2019-04-21T11:37:48.431Z,100202.73
2019-04-21T11:40:19.802Z,100196.27
2019-04-21T11:42:48.315Z,100186.05
2019-04-21T11:45:32.867Z,100185.58
2019-04-21T11:48:12.430Z,100184.09
2019-04-21T11:50:41.629Z,100183.98
2019-04-21T11:53:10.802Z,100170.31
2019-04-21T11:55:43.602Z,100166.58
2019-04-21T11:58:11.880Z,100167.92
2019-04-21T12:00:42.160Z,100158.34
2019-04-21T12:03:14.860Z,100152.23
2019-04-21T12:05:43.399Z,100146.86
2019-04-21T12:08:22.982Z,100145.00
2019-04-21T12:10:43.317Z,100142.98
2019-04-21T12:13:12.408Z,100138.09
2019-04-21T12:15:42.975Z,100135.69
2019-04-21T12:18:12.172Z,100129.73
2019-04-21T12:20:41.256Z,100125.76
2019-04-21T12:23:10.310Z,100124.03
2019-04-21T12:25:43.079Z,100116.37
2019-04-21T12:28:12.226Z,100112.59
2019-04-21T12:30:42.035Z,100111.73
2019-04-21T12:33:18.448Z,100110.28
2019-04-21T12:35:48.194Z,100114.50
2019-04-21T12:38:29.321Z,100110.88
2019-04-21T12:40:48.576Z,100104.08
2019-04-21T12:43:18.791Z,100097.57
2019-04-21T12:45:47.932Z,100095.34
2019-04-21T12:48:18.043Z,100090.38
2019-04-21T12:50:47.934Z,100083.00
2019-04-21T12:53:17.886Z,100079.83
2019-04-21T12:55:48.489Z,100080.23
2019-04-21T12:58:19.369Z,100071.58
2019-04-21T13:00:49.604Z,100067.41
2019-04-21T13:03:21.651Z,100065.58
2019-04-21T13:05:49.765Z,100054.73
2019-04-21T13:08:19.772Z,100066.12
2019-04-21T13:10:48.890Z,100066.66
2019-04-21T13:13:17.917Z,100056.91
2019-04-21T13:15:47.348Z,100047.82
2019-04-21T13:18:16.546Z,100052.52
2019-04-21T13:20:46.412Z,100043.22
2019-04-21T13:23:16.790Z,100034.66
2019-04-21T13:25:46.003Z,100036.06
2019-04-21T13:28:15.010Z,100035.20
2019-04-21T13:30:44.409Z,100024.77
2019-04-21T13:33:13.735Z,100031.21
2019-04-21T13:35:42.798Z,100024.11
2019-04-21T13:38:19.869Z,100019.07
2019-04-21T13:41:21.464Z,100018.20
2019-04-21T13:43:39.257Z,100011.81
2019-04-21T13:46:09.883Z,100002.09
2019-04-21T13:48:40.343Z,100002.56
2019-04-21T13:51:11.085Z,99995.22
2019-04-21T13:53:40.224Z,99998.63
2019-04-21T13:56:10.661Z,99983.16
2019-04-21T13:58:40.140Z,99976.28
2019-04-21T14:01:09.682Z,99978.94
2019-04-21T14:03:39.700Z,99917.05
2019-04-21T14:06:08.809Z,99965.00
2019-04-21T14:08:40.174Z,99961.84
2019-04-21T14:11:09.295Z,99954.86
2019-04-21T14:13:38.608Z,99960.42
2019-04-21T14:16:08.102Z,99955.53
2019-04-21T14:18:38.635Z,99948.55
2019-04-21T14:21:07.634Z,99943.27
2019-04-21T14:23:43.312Z,99941.61
2019-04-21T14:26:08.685Z,99939.73
2019-04-21T14:28:38.911Z,99941.89
2019-04-21T14:31:08.278Z,99935.23
2019-04-21T14:33:38.245Z,99932.31
2019-04-21T14:36:08.608Z,99934.41
2019-04-21T14:38:38.603Z,99917.99
2019-04-21T14:41:08.260Z,99925.45
2019-04-21T14:43:38.517Z,99921.30
2019-04-21T14:46:21.644Z,99924.01
2019-04-21T14:49:09.079Z,99924.75
2019-04-21T14:51:45.394Z,99929.21
2019-04-21T14:54:42.635Z,99922.97
2019-04-21T14:57:11.804Z,99920.55
2019-04-21T14:59:40.842Z,99914.41
2019-04-21T15:02:09.913Z,99908.17
2019-04-21T15:04:39.774Z,99899.39
2019-04-21T15:07:09.669Z,99907.70
2019-04-21T15:09:41.047Z,99901.59
2019-04-21T15:12:10.064Z,99890.19
2019-04-21T15:14:40.246Z,99890.19
2019-04-21T15:17:09.405Z,99894.70
2019-04-21T15:19:38.554Z,99886.63
2019-04-21T15:22:08.230Z,99890.08
2019-04-21T15:24:38.310Z,99884.69
2019-04-21T15:27:07.481Z,99889.94
2019-04-21T15:29:36.671Z,99888.34
2019-04-21T15:32:06.358Z,99874.77
2019-04-21T15:34:36.083Z,99874.77
2019-04-21T15:37:06.163Z,99870.73
2019-04-21T15:39:35.320Z,99866.70
2019-04-21T15:42:04.388Z,99872.56
2019-04-21T15:44:34.645Z,99860.82
2019-04-21T15:47:04.072Z,99861.08
2019-04-21T15:49:58.845Z,99856.06
2019-04-21T15:52:22.257Z,99851.92
2019-04-21T15:54:52.463Z,99851.92
2019-04-21T15:57:33.786Z,99855.34
2019-04-21T16:00:11.294Z,99853.73
2019-04-21T16:02:42.506Z,99844.80
2019-04-21T16:05:13.052Z,99852.60
2019-04-21T16:07:42.390Z,99846.56
2019-04-21T16:10:17.382Z,99846.09
2019-04-21T16:12:43.663Z,99852.42
2019-04-21T16:15:12.779Z,99849.83
2019-04-21T16:17:41.829Z,99845.52
2019-04-21T16:20:12.216Z,99844.42
2019-04-21T16:22:44.514Z,99840.03
2019-04-21T16:25:15.026Z,99843.30
2019-04-21T16:27:45.415Z,99831.34
2019-04-21T16:30:15.603Z,99833.87
2019-04-21T16:32:46.012Z,99832.52
2019-04-21T16:35:16.914Z,99825.85
2019-04-21T16:37:47.598Z,99827.52
2019-04-21T16:40:17.186Z,99822.02
2019-04-21T16:42:47.924Z,99819.81
2019-04-21T16:45:16.976Z,99819.42
2019-04-21T16:47:48.904Z,99816.37
2019-04-21T16:50:17.104Z,99819.87
2019-04-21T16:53:08.301Z,99812.29
2019-04-21T16:55:46.899Z,99811.89
2019-04-21T16:58:32.627Z,99811.10
2019-04-21T17:01:11.020Z,99810.44
2019-04-21T17:03:36.821Z,99811.08
2019-04-21T17:06:06.998Z,99805.20
2019-04-21T17:08:36.872Z,99802.75
2019-04-21T17:11:14.013Z,99805.13
2019-04-21T17:13:38.296Z,99801.31
2019-04-21T17:16:36.456Z,99800.06
2019-04-21T17:18:50.864Z,99796.00
2019-04-21T17:21:11.142Z,99792.00
2019-04-21T17:23:42.151Z,99795.32
2019-04-21T17:26:11.179Z,99788.23
2019-04-21T17:28:40.715Z,99792.89
2019-04-21T17:31:10.868Z,99789.00
2019-04-21T17:33:41.390Z,99794.05
2019-04-21T17:36:11.315Z,99786.56
2019-04-21T17:38:41.821Z,99792.72
2019-04-21T17:41:21.518Z,99789.25
2019-04-21T17:43:41.952Z,99785.64
2019-04-21T17:46:18.074Z,99787.91
2019-04-21T17:48:42.981Z,99781.25
2019-04-21T17:51:17.678Z,99786.55
2019-04-21T17:54:17.552Z,99781.73
2019-04-21T17:57:07.442Z,99787.50
2019-04-21T17:59:45.139Z,99782.55
2019-04-21T18:01:59.426Z,99789.86
2019-04-21T18:04:32.192Z,99784.04
2019-04-21T18:07:26.106Z,99786.13
2019-04-21T18:10:00.923Z,99785.30
2019-04-21T18:12:25.026Z,99781.90
2019-04-21T18:14:52.949Z,99788.23
2019-04-21T18:17:14.217Z,99789.00
2019-04-21T18:19:47.342Z,99791.98
2019-04-21T18:22:37.663Z,99790.74
2019-04-21T18:25:09.895Z,99792.17
2019-04-21T18:27:36.634Z,99792.13
2019-04-21T18:30:28.387Z,99797.48
2019-04-21T18:32:58.638Z,99791.18
2019-04-21T18:35:36.513Z,99788.50
2019-04-21T18:38:20.722Z,99793.47
2019-04-21T18:40:47.437Z,99784.52
2019-04-21T18:43:53.145Z,99787.24
2019-04-21T18:46:25.891Z,99785.05
2019-04-21T18:48:55.227Z,99791.64
2019-04-21T18:51:34.711Z,99791.25
2019-04-21T18:54:26.951Z,99793.52
2019-04-21T18:56:33.819Z,99791.33
2019-04-21T18:59:04.371Z,99795.23
2019-04-21T19:01:36.520Z,99795.97
2019-04-21T19:04:13.468Z,99792.35
2019-04-21T19:06:51.433Z,99790.11
2019-04-21T19:09:47.587Z,99793.63
2019-04-21T19:12:06.046Z,99806.91
2019-04-21T19:14:50.991Z,99792.80
2019-04-21T19:17:39.583Z,99793.34
2019-04-21T19:19:46.473Z,99793.30
2019-04-21T19:22:09.057Z,99795.63
2019-04-21T19:27:19.150Z,99792.52
2019-04-21T19:29:53.955Z,99795.59
2019-04-21T19:32:29.035Z,99792.98
2019-04-21T19:34:32.563Z,99792.44
2019-04-21T19:37:05.801Z,99786.28
2019-04-21T19:39:43.419Z,99787.55
2019-04-21T19:42:14.463Z,99787.11
2019-04-21T19:44:47.229Z,99791.53
2019-04-21T19:47:25.676Z,99784.04
2019-04-21T19:49:55.157Z,99786.64
2019-04-21T19:52:11.524Z,99783.91
2019-04-21T19:54:39.780Z,99782.98
2019-04-21T19:57:07.022Z,99781.55
2019-04-21T19:59:42.655Z,99781.58
2019-04-21T20:02:08.858Z,99775.33
2019-04-21T20:04:43.879Z,99772.10
2019-04-21T20:07:22.873Z,99771.95
2019-04-21T20:10:02.112Z,99772.30
2019-04-21T20:12:35.581Z,99772.20
2019-04-21T20:15:06.388Z,99769.07
2019-04-21T20:17:31.068Z,99764.53
2019-04-21T20:19:44.542Z,99766.16
2019-04-21T20:22:14.723Z,99765.62
2019-04-21T20:24:50.035Z,99759.27
2019-04-21T20:27:19.795Z,99764.48
2019-04-21T20:30:01.996Z,99763.45
2019-04-21T20:32:38.271Z,99761.95
2019-04-21T20:35:06.749Z,99763.97
2019-04-21T20:37:31.736Z,99754.10
2019-04-21T20:39:57.791Z,99756.20
2019-04-21T20:42:29.359Z,99755.55
2019-04-21T20:45:24.961Z,99757.19
2019-04-21T20:47:30.932Z,99753.81
2019-04-21T20:50:11.405Z,99754.03
2019-04-21T20:52:44.782Z,99757.45
2019-04-21T20:55:06.826Z,99751.48
2019-04-21T20:57:39.911Z,99751.36
2019-04-21T21:00:15.422Z,99753.39
2019-04-21T21:02:46.957Z,99754.02
2019-04-21T21:05:14.189Z,99750.34
2019-04-21T21:08:08.631Z,99751.01
2019-04-21T21:10:17.511Z,99751.22
2019-04-21T21:15:10.078Z,99749.46
2019-04-21T21:20:24.865Z,99738.92
2019-04-21T21:22:48.289Z,99746.21
2019-04-21T21:25:32.183Z,99741.11
2019-04-21T21:27:50.234Z,99735.61
2019-04-21T21:30:24.615Z,99736.75
2019-04-21T21:32:54.662Z,99735.23
2019-04-21T21:35:21.423Z,99738.56
2019-04-21T21:38:03.599Z,99732.64
2019-04-21T21:40:27.118Z,99738.09
2019-04-21T21:42:44.283Z,99731.17
2019-04-21T21:45:17.860Z,99743.30
2019-04-21T21:48:04.528Z,99732.02
2019-04-21T21:50:23.927Z,99737.06
2019-04-21T21:52:55.105Z,99736.86
2019-04-21T21:55:15.999Z,99727.83
2019-04-21T21:57:51.789Z,99727.57
2019-04-21T22:00:17.508Z,99734.39
2019-04-21T22:02:51.308Z,99731.93
2019-04-21T22:05:23.896Z,99724.27
2019-04-21T22:07:49.042Z,99732.89
2019-04-21T22:10:18.327Z,99735.64
2019-04-21T22:12:57.115Z,99733.61
2019-04-21T22:15:24.347Z,99728.02
2019-04-21T22:18:12.091Z,99738.80
2019-04-21T22:20:40.118Z,99736.28
2019-04-21T22:22:59.414Z,99733.73
2019-04-21T22:25:26.640Z,99733.02
2019-04-21T22:27:53.655Z,99731.40
2019-04-21T22:30:29.934Z,99732.08
2019-04-21T22:33:00.727Z,99728.28
2019-04-21T22:35:33.494Z,99725.37
2019-04-21T22:38:12.356Z,99725.06
2019-04-21T22:40:44.069Z,99727.84
2019-04-21T22:43:07.124Z,99734.16
2019-04-21T22:45:29.313Z,99729.92
2019-04-21T22:48:05.346Z,99721.70
2019-04-21T22:50:30.821Z,99724.53
2019-04-21T22:53:04.732Z,99718.08
2019-04-21T22:55:34.732Z,99719.05
2019-04-21T22:58:03.499Z,99709.88
2019-04-21T23:00:40.052Z,99709.21
2019-04-21T23:03:12.960Z,99706.34
2019-04-21T23:05:38.229Z,99707.84
2019-04-21T23:08:07.204Z,99710.81
2019-04-21T23:10:37.148Z,99700.62
2019-04-21T23:13:12.219Z,99707.19
2019-04-21T23:15:42.360Z,99702.77
2019-04-21T23:18:24.467Z,99700.45
2019-04-21T23:20:54.050Z,99696.48
2019-04-21T23:23:30.234Z,99697.75
2019-04-21T23:25:55.653Z,99695.50
2019-04-21T23:28:34.563Z,99695.05
2019-04-21T23:31:00.436Z,99698.16
2019-04-21T23:33:15.846Z,99686.72
2019-04-21T23:35:46.080Z,99684.07
2019-04-21T23:38:16.025Z,99685.48
2019-04-21T23:40:50.523Z,99687.64
2019-04-21T23:43:22.317Z,99681.03
2019-04-21T23:45:48.214Z,99684.25
2019-04-21T23:48:30.025Z,99679.92
2019-04-21T23:50:54.734Z,99684.02
2019-04-21T23:53:19.719Z,99682.22
2019-04-21T23:55:49.498Z,99681.03
2019-04-21T23:58:25.074Z,99674.94
